sensor_id;sensor_type;location;lat;lon;timestamp;P1;durP1;ratioP1;P2;durP2;ratioP2
23642;SDS011;11998;55.788;37.572;2023-07-29T00:00:55;5.17;;;3.33;;
23642;SDS011;11998;55.788;37.572;2023-07-29T00:01:56;6.37;;;3.30;;
23642;SDS011;11998;55.788;37.572;2023-07-29T00:02:56;3.70;;;3.17;;
23642;SDS011;11998;55.788;37.572;2023-07-29T00:03:57;3.57;;;3.27;;
23642;SDS011;11998;55.788;37.572;2023-07-29T00:04:57;3.50;;;3.00;;
23642;SDS011;11998;55.788;37.572;2023-07-29T00:05:58;4.57;;;3.47;;
23642;SDS011;11998;55.788;37.572;2023-07-29T00:06:58;4.73;;;3.27;;
23642;SDS011;11998;55.788;37.572;2023-07-29T00:07:59;3.23;;;2.93;;
23642;SDS011;11998;55.788;37.572;2023-07-29T00:08:59;3.77;;;3.13;;
23642;SDS011;11998;55.788;37.572;2023-07-29T00:10:00;4.00;;;3.40;;
23642;SDS011;11998;55.788;37.572;2023-07-29T00:11:00;3.90;;;3.20;;
23642;SDS011;11998;55.788;37.572;2023-07-29T00:12:01;3.70;;;3.20;;
23642;SDS011;11998;55.788;37.572;2023-07-29T00:13:01;6.77;;;3.60;;
23642;SDS011;11998;55.788;37.572;2023-07-29T00:14:02;4.37;;;3.97;;
23642;SDS011;11998;55.788;37.572;2023-07-29T00:15:02;4.03;;;3.63;;
23642;SDS011;11998;55.788;37.572;2023-07-29T00:16:03;4.47;;;2.97;;
23642;SDS011;11998;55.788;37.572;2023-07-29T00:17:04;4.15;;;3.40;;
23642;SDS011;11998;55.788;37.572;2023-07-29T00:18:04;8.20;;;6.43;;
23642;SDS011;11998;55.788;37.572;2023-07-29T00:19:05;6.93;;;6.23;;
23642;SDS011;11998;55.788;37.572;2023-07-29T00:20:06;4.60;;;3.43;;
23642;SDS011;11998;55.788;37.572;2023-07-29T00:21:07;7.77;;;3.17;;
23642;SDS011;11998;55.788;37.572;2023-07-29T00:22:07;5.03;;;3.10;;
23642;SDS011;11998;55.788;37.572;2023-07-29T00:23:08;4.73;;;3.70;;
23642;SDS011;11998;55.788;37.572;2023-07-29T00:24:09;4.73;;;3.43;;
23642;SDS011;11998;55.788;37.572;2023-07-29T00:25:09;3.60;;;3.30;;
23642;SDS011;11998;55.788;37.572;2023-07-29T00:26:10;3.73;;;3.37;;
23642;SDS011;11998;55.788;37.572;2023-07-29T00:27:10;4.73;;;3.33;;
23642;SDS011;11998;55.788;37.572;2023-07-29T00:28:11;7.90;;;3.60;;
23642;SDS011;11998;55.788;37.572;2023-07-29T00:29:12;6.00;;;3.60;;
23642;SDS011;11998;55.788;37.572;2023-07-29T00:30:13;7.40;;;3.90;;
23642;SDS011;11998;55.788;37.572;2023-07-29T00:31:13;4.63;;;3.57;;
23642;SDS011;11998;55.788;37.572;2023-07-29T00:32:14;6.23;;;3.40;;
23642;SDS011;11998;55.788;37.572;2023-07-29T00:33:14;4.97;;;3.30;;
23642;SDS011;11998;55.788;37.572;2023-07-29T00:34:15;7.27;;;3.60;;
23642;SDS011;11998;55.788;37.572;2023-07-29T00:35:19;6.57;;;3.57;;
23642;SDS011;11998;55.788;37.572;2023-07-29T00:36:20;4.87;;;3.50;;
23642;SDS011;11998;55.788;37.572;2023-07-29T00:37:20;6.27;;;3.60;;
23642;SDS011;11998;55.788;37.572;2023-07-29T00:38:21;4.40;;;3.63;;
23642;SDS011;11998;55.788;37.572;2023-07-29T00:39:22;3.87;;;3.57;;
23642;SDS011;11998;55.788;37.572;2023-07-29T00:40:23;6.77;;;3.97;;
23642;SDS011;11998;55.788;37.572;2023-07-29T00:41:23;6.73;;;3.60;;
23642;SDS011;11998;55.788;37.572;2023-07-29T00:42:26;5.80;;;3.87;;
23642;SDS011;11998;55.788;37.572;2023-07-29T00:43:26;5.97;;;3.73;;
23642;SDS011;11998;55.788;37.572;2023-07-29T00:44:27;5.30;;;3.43;;
23642;SDS011;11998;55.788;37.572;2023-07-29T00:45:28;5.23;;;3.70;;
23642;SDS011;11998;55.788;37.572;2023-07-29T00:46:29;5.90;;;3.73;;
23642;SDS011;11998;55.788;37.572;2023-07-29T00:47:30;6.40;;;3.40;;
23642;SDS011;11998;55.788;37.572;2023-07-29T00:48:30;4.63;;;3.30;;
23642;SDS011;11998;55.788;37.572;2023-07-29T00:49:31;4.23;;;3.40;;
23642;SDS011;11998;55.788;37.572;2023-07-29T00:50:32;3.70;;;3.30;;
23642;SDS011;11998;55.788;37.572;2023-07-29T00:51:33;4.30;;;3.47;;
23642;SDS011;11998;55.788;37.572;2023-07-29T00:52:33;5.63;;;3.40;;
23642;SDS011;11998;55.788;37.572;2023-07-29T00:53:34;4.50;;;3.60;;
23642;SDS011;11998;55.788;37.572;2023-07-29T00:54:34;6.43;;;3.77;;
23642;SDS011;11998;55.788;37.572;2023-07-29T00:55:35;6.47;;;3.80;;
23642;SDS011;11998;55.788;37.572;2023-07-29T00:56:36;4.90;;;3.17;;
23642;SDS011;11998;55.788;37.572;2023-07-29T00:57:37;3.90;;;3.50;;
23642;SDS011;11998;55.788;37.572;2023-07-29T00:58:38;4.73;;;3.30;;
23642;SDS011;11998;55.788;37.572;2023-07-29T00:59:38;4.00;;;3.37;;
23642;SDS011;11998;55.788;37.572;2023-07-29T01:00:40;7.03;;;3.40;;
23642;SDS011;11998;55.788;37.572;2023-07-29T01:01:41;6.10;;;3.40;;
23642;SDS011;11998;55.788;37.572;2023-07-29T01:02:42;5.07;;;3.27;;
23642;SDS011;11998;55.788;37.572;2023-07-29T01:03:43;3.73;;;3.20;;
23642;SDS011;11998;55.788;37.572;2023-07-29T01:04:45;7.53;;;3.13;;
23642;SDS011;11998;55.788;37.572;2023-07-29T01:05:50;6.63;;;3.53;;
23642;SDS011;11998;55.788;37.572;2023-07-29T01:07:07;4.50;;;3.50;;
23642;SDS011;11998;55.788;37.572;2023-07-29T01:11:01;7.33;;;5.17;;
23642;SDS011;11998;55.788;37.572;2023-07-29T01:13:57;5.73;;;4.40;;
23642;SDS011;11998;55.788;37.572;2023-07-29T01:15:09;5.47;;;4.60;;
23642;SDS011;11998;55.788;37.572;2023-07-29T01:16:15;4.15;;;3.40;;
23642;SDS011;11998;55.788;37.572;2023-07-29T01:17:23;4.20;;;3.77;;
23642;SDS011;11998;55.788;37.572;2023-07-29T01:18:31;3.70;;;3.40;;
23642;SDS011;11998;55.788;37.572;2023-07-29T01:20:44;6.72;;;3.80;;
23642;SDS011;11998;55.788;37.572;2023-07-29T01:21:48;5.70;;;3.07;;
23642;SDS011;11998;55.788;37.572;2023-07-29T01:22:49;4.47;;;3.27;;
23642;SDS011;11998;55.788;37.572;2023-07-29T01:23:57;3.37;;;3.07;;
23642;SDS011;11998;55.788;37.572;2023-07-29T01:24:59;3.47;;;3.17;;
23642;SDS011;11998;55.788;37.572;2023-07-29T01:26:00;4.17;;;3.50;;
23642;SDS011;11998;55.788;37.572;2023-07-29T01:27:01;7.70;;;3.70;;
23642;SDS011;11998;55.788;37.572;2023-07-29T01:28:04;6.13;;;3.90;;
23642;SDS011;11998;55.788;37.572;2023-07-29T01:29:04;3.77;;;3.47;;
23642;SDS011;11998;55.788;37.572;2023-07-29T01:30:05;3.47;;;3.17;;
23642;SDS011;11998;55.788;37.572;2023-07-29T01:32:21;3.80;;;3.37;;
23642;SDS011;11998;55.788;37.572;2023-07-29T01:33:34;3.93;;;3.63;;
23642;SDS011;11998;55.788;37.572;2023-07-29T01:34:41;3.87;;;3.43;;
23642;SDS011;11998;55.788;37.572;2023-07-29T01:35:50;6.07;;;3.27;;
23642;SDS011;11998;55.788;37.572;2023-07-29T01:36:57;4.13;;;3.30;;
23642;SDS011;11998;55.788;37.572;2023-07-29T01:38:08;6.00;;;3.50;;
23642;SDS011;11998;55.788;37.572;2023-07-29T01:39:14;5.83;;;3.30;;
23642;SDS011;11998;55.788;37.572;2023-07-29T01:40:17;5.50;;;3.50;;
23642;SDS011;11998;55.788;37.572;2023-07-29T01:41:19;4.33;;;3.93;;
23642;SDS011;11998;55.788;37.572;2023-07-29T01:42:21;4.57;;;3.30;;
23642;SDS011;11998;55.788;37.572;2023-07-29T01:43:22;3.97;;;3.53;;
23642;SDS011;11998;55.788;37.572;2023-07-29T01:44:25;4.10;;;3.37;;
23642;SDS011;11998;55.788;37.572;2023-07-29T01:45:27;4.30;;;3.90;;
23642;SDS011;11998;55.788;37.572;2023-07-29T01:46:33;7.17;;;3.73;;
23642;SDS011;11998;55.788;37.572;2023-07-29T01:47:34;3.60;;;3.30;;
23642;SDS011;11998;55.788;37.572;2023-07-29T01:48:34;5.47;;;3.60;;
23642;SDS011;11998;55.788;37.572;2023-07-29T01:49:35;5.17;;;3.97;;
23642;SDS011;11998;55.788;37.572;2023-07-29T01:50:35;4.73;;;3.90;;
23642;SDS011;11998;55.788;37.572;2023-07-29T01:51:36;3.93;;;3.23;;
23642;SDS011;11998;55.788;37.572;2023-07-29T01:52:36;5.80;;;4.03;;
23642;SDS011;11998;55.788;37.572;2023-07-29T01:53:37;4.87;;;3.70;;
23642;SDS011;11998;55.788;37.572;2023-07-29T01:54:37;6.43;;;4.30;;
23642;SDS011;11998;55.788;37.572;2023-07-29T01:55:38;5.20;;;4.27;;
23642;SDS011;11998;55.788;37.572;2023-07-29T01:56:39;4.73;;;3.97;;
23642;SDS011;11998;55.788;37.572;2023-07-29T01:57:39;4.83;;;4.10;;
23642;SDS011;11998;55.788;37.572;2023-07-29T01:58:40;4.30;;;3.80;;
23642;SDS011;11998;55.788;37.572;2023-07-29T01:59:40;5.43;;;3.63;;
23642;SDS011;11998;55.788;37.572;2023-07-29T02:00:41;7.43;;;4.17;;
23642;SDS011;11998;55.788;37.572;2023-07-29T02:01:41;4.73;;;3.60;;
23642;SDS011;11998;55.788;37.572;2023-07-29T02:02:42;4.63;;;4.13;;
23642;SDS011;11998;55.788;37.572;2023-07-29T02:03:43;6.73;;;4.20;;
23642;SDS011;11998;55.788;37.572;2023-07-29T02:04:43;4.47;;;4.07;;
23642;SDS011;11998;55.788;37.572;2023-07-29T02:05:45;4.53;;;4.13;;
23642;SDS011;11998;55.788;37.572;2023-07-29T02:06:45;5.73;;;4.30;;
23642;SDS011;11998;55.788;37.572;2023-07-29T02:07:46;5.73;;;4.40;;
23642;SDS011;11998;55.788;37.572;2023-07-29T02:08:46;4.93;;;4.40;;
23642;SDS011;11998;55.788;37.572;2023-07-29T02:09:47;8.20;;;4.50;;
23642;SDS011;11998;55.788;37.572;2023-07-29T02:10:47;7.33;;;4.77;;
23642;SDS011;11998;55.788;37.572;2023-07-29T02:11:48;6.20;;;4.57;;
23642;SDS011;11998;55.788;37.572;2023-07-29T02:12:49;5.20;;;4.17;;
23642;SDS011;11998;55.788;37.572;2023-07-29T02:13:49;4.60;;;4.20;;
23642;SDS011;11998;55.788;37.572;2023-07-29T02:14:50;6.50;;;4.27;;
23642;SDS011;11998;55.788;37.572;2023-07-29T02:15:50;5.00;;;4.30;;
23642;SDS011;11998;55.788;37.572;2023-07-29T02:16:51;6.50;;;4.57;;
23642;SDS011;11998;55.788;37.572;2023-07-29T02:17:52;5.70;;;4.57;;
23642;SDS011;11998;55.788;37.572;2023-07-29T02:18:52;4.77;;;4.23;;
23642;SDS011;11998;55.788;37.572;2023-07-29T02:19:53;5.17;;;4.33;;
23642;SDS011;11998;55.788;37.572;2023-07-29T02:20:53;5.40;;;4.43;;
23642;SDS011;11998;55.788;37.572;2023-07-29T02:21:54;5.10;;;4.40;;
23642;SDS011;11998;55.788;37.572;2023-07-29T02:22:54;5.70;;;4.50;;
23642;SDS011;11998;55.788;37.572;2023-07-29T02:23:55;5.37;;;4.47;;
23642;SDS011;11998;55.788;37.572;2023-07-29T02:24:55;5.67;;;4.50;;
23642;SDS011;11998;55.788;37.572;2023-07-29T02:25:56;5.50;;;4.50;;
23642;SDS011;11998;55.788;37.572;2023-07-29T02:26:56;4.97;;;4.30;;
23642;SDS011;11998;55.788;37.572;2023-07-29T02:27:57;6.77;;;4.83;;
23642;SDS011;11998;55.788;37.572;2023-07-29T02:28:57;5.23;;;4.60;;
23642;SDS011;11998;55.788;37.572;2023-07-29T02:29:58;4.63;;;3.90;;
23642;SDS011;11998;55.788;37.572;2023-07-29T02:31:13;7.10;;;4.30;;
23642;SDS011;11998;55.788;37.572;2023-07-29T02:32:15;5.87;;;4.60;;
23642;SDS011;11998;55.788;37.572;2023-07-29T02:33:16;6.27;;;4.83;;
23642;SDS011;11998;55.788;37.572;2023-07-29T02:34:16;5.17;;;4.67;;
23642;SDS011;11998;55.788;37.572;2023-07-29T02:35:17;5.73;;;4.07;;
23642;SDS011;11998;55.788;37.572;2023-07-29T02:36:18;4.50;;;4.10;;
23642;SDS011;11998;55.788;37.572;2023-07-29T02:37:19;6.57;;;4.20;;
23642;SDS011;11998;55.788;37.572;2023-07-29T02:38:20;5.83;;;4.03;;
23642;SDS011;11998;55.788;37.572;2023-07-29T02:39:20;4.83;;;4.13;;
23642;SDS011;11998;55.788;37.572;2023-07-29T02:40:21;4.43;;;4.03;;
23642;SDS011;11998;55.788;37.572;2023-07-29T02:41:23;6.90;;;3.90;;
23642;SDS011;11998;55.788;37.572;2023-07-29T02:42:23;5.00;;;4.50;;
23642;SDS011;11998;55.788;37.572;2023-07-29T02:43:24;5.37;;;4.10;;
23642;SDS011;11998;55.788;37.572;2023-07-29T02:44:25;4.97;;;4.53;;
23642;SDS011;11998;55.788;37.572;2023-07-29T02:45:25;6.07;;;4.47;;
23642;SDS011;11998;55.788;37.572;2023-07-29T02:46:26;7.20;;;4.27;;
23642;SDS011;11998;55.788;37.572;2023-07-29T02:47:26;4.83;;;4.40;;
23642;SDS011;11998;55.788;37.572;2023-07-29T02:48:27;6.27;;;4.30;;
23642;SDS011;11998;55.788;37.572;2023-07-29T02:49:28;5.27;;;4.70;;
23642;SDS011;11998;55.788;37.572;2023-07-29T02:50:29;5.43;;;4.57;;
23642;SDS011;11998;55.788;37.572;2023-07-29T02:51:30;6.40;;;4.33;;
23642;SDS011;11998;55.788;37.572;2023-07-29T02:52:31;5.63;;;4.40;;
23642;SDS011;11998;55.788;37.572;2023-07-29T02:53:32;6.27;;;4.43;;
23642;SDS011;11998;55.788;37.572;2023-07-29T02:54:32;4.83;;;4.00;;
23642;SDS011;11998;55.788;37.572;2023-07-29T02:55:33;4.97;;;4.07;;
23642;SDS011;11998;55.788;37.572;2023-07-29T02:56:33;4.50;;;4.10;;
23642;SDS011;11998;55.788;37.572;2023-07-29T02:57:34;4.93;;;4.47;;
23642;SDS011;11998;55.788;37.572;2023-07-29T02:58:34;5.67;;;4.43;;
23642;SDS011;11998;55.788;37.572;2023-07-29T02:59:36;8.03;;;4.07;;
23642;SDS011;11998;55.788;37.572;2023-07-29T03:00:36;6.17;;;4.20;;
23642;SDS011;11998;55.788;37.572;2023-07-29T03:01:37;4.97;;;4.53;;
23642;SDS011;11998;55.788;37.572;2023-07-29T03:02:38;6.00;;;4.20;;
23642;SDS011;11998;55.788;37.572;2023-07-29T03:03:39;6.90;;;5.00;;
23642;SDS011;11998;55.788;37.572;2023-07-29T03:04:39;6.40;;;4.57;;
23642;SDS011;11998;55.788;37.572;2023-07-29T03:05:40;6.40;;;4.80;;
23642;SDS011;11998;55.788;37.572;2023-07-29T03:06:40;4.80;;;4.27;;
23642;SDS011;11998;55.788;37.572;2023-07-29T03:07:41;5.73;;;4.50;;
23642;SDS011;11998;55.788;37.572;2023-07-29T03:08:41;6.53;;;4.93;;
23642;SDS011;11998;55.788;37.572;2023-07-29T03:09:42;5.37;;;4.87;;
23642;SDS011;11998;55.788;37.572;2023-07-29T03:10:44;6.00;;;4.53;;
23642;SDS011;11998;55.788;37.572;2023-07-29T03:11:44;4.87;;;4.17;;
23642;SDS011;11998;55.788;37.572;2023-07-29T03:12:46;6.93;;;5.10;;
23642;SDS011;11998;55.788;37.572;2023-07-29T03:13:46;6.47;;;5.03;;
23642;SDS011;11998;55.788;37.572;2023-07-29T03:14:50;6.53;;;4.70;;
23642;SDS011;11998;55.788;37.572;2023-07-29T03:15:50;5.43;;;4.78;;
23642;SDS011;11998;55.788;37.572;2023-07-29T03:16:51;5.73;;;5.23;;
23642;SDS011;11998;55.788;37.572;2023-07-29T03:17:52;6.57;;;4.88;;
23642;SDS011;11998;55.788;37.572;2023-07-29T03:18:53;5.20;;;4.60;;
23642;SDS011;11998;55.788;37.572;2023-07-29T03:19:53;5.03;;;4.60;;
23642;SDS011;11998;55.788;37.572;2023-07-29T03:20:55;6.03;;;4.53;;
23642;SDS011;11998;55.788;37.572;2023-07-29T03:21:56;6.80;;;4.80;;
23642;SDS011;11998;55.788;37.572;2023-07-29T03:22:56;5.30;;;4.80;;
23642;SDS011;11998;55.788;37.572;2023-07-29T03:23:57;6.33;;;4.50;;
23642;SDS011;11998;55.788;37.572;2023-07-29T03:24:57;4.77;;;4.30;;
23642;SDS011;11998;55.788;37.572;2023-07-29T03:25:58;6.13;;;4.28;;
23642;SDS011;11998;55.788;37.572;2023-07-29T03:26:59;5.27;;;4.50;;
23642;SDS011;11998;55.788;37.572;2023-07-29T03:28:00;6.80;;;4.40;;
23642;SDS011;11998;55.788;37.572;2023-07-29T03:29:01;7.00;;;5.00;;
23642;SDS011;11998;55.788;37.572;2023-07-29T03:30:04;6.13;;;4.70;;
23642;SDS011;11998;55.788;37.572;2023-07-29T03:31:05;5.35;;;4.45;;
23642;SDS011;11998;55.788;37.572;2023-07-29T03:32:06;5.40;;;4.70;;
23642;SDS011;11998;55.788;37.572;2023-07-29T03:33:06;5.23;;;4.40;;
23642;SDS011;11998;55.788;37.572;2023-07-29T03:34:07;6.63;;;4.60;;
23642;SDS011;11998;55.788;37.572;2023-07-29T03:35:09;7.00;;;4.93;;
23642;SDS011;11998;55.788;37.572;2023-07-29T03:36:10;5.60;;;4.87;;
23642;SDS011;11998;55.788;37.572;2023-07-29T03:37:10;7.50;;;5.00;;
23642;SDS011;11998;55.788;37.572;2023-07-29T03:38:11;5.40;;;4.90;;
23642;SDS011;11998;55.788;37.572;2023-07-29T03:39:12;6.83;;;4.90;;
23642;SDS011;11998;55.788;37.572;2023-07-29T03:40:12;6.20;;;4.80;;
23642;SDS011;11998;55.788;37.572;2023-07-29T03:41:13;6.13;;;5.10;;
23642;SDS011;11998;55.788;37.572;2023-07-29T03:42:13;7.20;;;4.93;;
23642;SDS011;11998;55.788;37.572;2023-07-29T03:43:14;8.03;;;5.20;;
23642;SDS011;11998;55.788;37.572;2023-07-29T03:44:14;7.57;;;5.47;;
23642;SDS011;11998;55.788;37.572;2023-07-29T03:45:15;5.00;;;4.30;;
23642;SDS011;11998;55.788;37.572;2023-07-29T03:46:16;6.22;;;5.43;;
23642;SDS011;11998;55.788;37.572;2023-07-29T03:47:19;7.00;;;4.80;;
23642;SDS011;11998;55.788;37.572;2023-07-29T03:48:20;5.13;;;4.63;;
23642;SDS011;11998;55.788;37.572;2023-07-29T03:49:20;6.72;;;4.93;;
23642;SDS011;11998;55.788;37.572;2023-07-29T03:50:21;5.53;;;4.83;;
23642;SDS011;11998;55.788;37.572;2023-07-29T03:51:21;7.87;;;4.80;;
23642;SDS011;11998;55.788;37.572;2023-07-29T03:52:23;5.10;;;4.67;;
23642;SDS011;11998;55.788;37.572;2023-07-29T03:53:23;6.53;;;5.10;;
23642;SDS011;11998;55.788;37.572;2023-07-29T03:54:24;6.60;;;5.43;;
23642;SDS011;11998;55.788;37.572;2023-07-29T03:55:24;5.53;;;5.03;;
23642;SDS011;11998;55.788;37.572;2023-07-29T03:56:25;8.60;;;5.33;;
23642;SDS011;11998;55.788;37.572;2023-07-29T03:57:25;6.10;;;5.50;;
23642;SDS011;11998;55.788;37.572;2023-07-29T03:58:26;6.73;;;5.33;;
23642;SDS011;11998;55.788;37.572;2023-07-29T03:59:27;6.93;;;5.17;;
23642;SDS011;11998;55.788;37.572;2023-07-29T04:00:27;9.20;;;5.13;;
23642;SDS011;11998;55.788;37.572;2023-07-29T04:01:28;6.77;;;5.53;;
23642;SDS011;11998;55.788;37.572;2023-07-29T04:02:28;5.43;;;5.00;;
23642;SDS011;11998;55.788;37.572;2023-07-29T04:03:29;6.43;;;5.10;;
23642;SDS011;11998;55.788;37.572;2023-07-29T04:04:29;5.53;;;5.03;;
23642;SDS011;11998;55.788;37.572;2023-07-29T04:05:30;5.90;;;5.40;;
23642;SDS011;11998;55.788;37.572;2023-07-29T04:06:30;5.57;;;5.07;;
23642;SDS011;11998;55.788;37.572;2023-07-29T04:07:32;5.73;;;5.13;;
23642;SDS011;11998;55.788;37.572;2023-07-29T04:08:32;6.57;;;5.97;;
23642;SDS011;11998;55.788;37.572;2023-07-29T04:09:33;6.27;;;4.83;;
23642;SDS011;11998;55.788;37.572;2023-07-29T04:10:34;6.47;;;4.93;;
23642;SDS011;11998;55.788;37.572;2023-07-29T04:11:35;6.20;;;4.80;;
23642;SDS011;11998;55.788;37.572;2023-07-29T04:12:36;8.33;;;4.63;;
23642;SDS011;11998;55.788;37.572;2023-07-29T04:13:36;5.47;;;4.97;;
23642;SDS011;11998;55.788;37.572;2023-07-29T04:14:37;5.90;;;5.07;;
23642;SDS011;11998;55.788;37.572;2023-07-29T04:15:38;5.93;;;4.90;;
23642;SDS011;11998;55.788;37.572;2023-07-29T04:16:38;5.67;;;5.03;;
23642;SDS011;11998;55.788;37.572;2023-07-29T04:17:39;5.87;;;4.70;;
23642;SDS011;11998;55.788;37.572;2023-07-29T04:18:39;6.00;;;5.00;;
23642;SDS011;11998;55.788;37.572;2023-07-29T04:19:40;5.63;;;5.07;;
23642;SDS011;11998;55.788;37.572;2023-07-29T04:20:40;5.40;;;4.87;;
23642;SDS011;11998;55.788;37.572;2023-07-29T04:21:41;5.53;;;5.00;;
23642;SDS011;11998;55.788;37.572;2023-07-29T04:22:41;6.90;;;5.03;;
23642;SDS011;11998;55.788;37.572;2023-07-29T04:23:42;6.47;;;4.90;;
23642;SDS011;11998;55.788;37.572;2023-07-29T04:24:42;7.80;;;4.80;;
23642;SDS011;11998;55.788;37.572;2023-07-29T04:25:43;6.30;;;4.60;;
23642;SDS011;11998;55.788;37.572;2023-07-29T04:26:43;8.65;;;5.40;;
23642;SDS011;11998;55.788;37.572;2023-07-29T04:27:44;9.38;;;5.32;;
23642;SDS011;11998;55.788;37.572;2023-07-29T04:28:45;11.13;;;5.33;;
23642;SDS011;11998;55.788;37.572;2023-07-29T04:29:45;6.00;;;4.93;;
23642;SDS011;11998;55.788;37.572;2023-07-29T04:30:46;6.07;;;5.13;;
23642;SDS011;11998;55.788;37.572;2023-07-29T04:31:46;11.10;;;5.60;;
23642;SDS011;11998;55.788;37.572;2023-07-29T04:32:47;9.10;;;4.90;;
23642;SDS011;11998;55.788;37.572;2023-07-29T04:33:48;11.33;;;5.60;;
23642;SDS011;11998;55.788;37.572;2023-07-29T04:34:48;7.63;;;6.00;;
23642;SDS011;11998;55.788;37.572;2023-07-29T04:35:49;10.10;;;5.30;;
23642;SDS011;11998;55.788;37.572;2023-07-29T04:36:49;10.73;;;5.47;;
23642;SDS011;11998;55.788;37.572;2023-07-29T04:37:50;8.80;;;5.50;;
23642;SDS011;11998;55.788;37.572;2023-07-29T04:38:50;7.87;;;5.30;;
23642;SDS011;11998;55.788;37.572;2023-07-29T04:39:51;6.93;;;5.23;;
23642;SDS011;11998;55.788;37.572;2023-07-29T04:40:51;7.73;;;5.30;;
23642;SDS011;11998;55.788;37.572;2023-07-29T04:41:52;7.97;;;4.97;;
23642;SDS011;11998;55.788;37.572;2023-07-29T04:42:53;7.00;;;5.20;;
23642;SDS011;11998;55.788;37.572;2023-07-29T04:43:53;6.23;;;4.90;;
23642;SDS011;11998;55.788;37.572;2023-07-29T04:44:54;7.47;;;5.40;;
23642;SDS011;11998;55.788;37.572;2023-07-29T04:45:54;6.50;;;5.10;;
23642;SDS011;11998;55.788;37.572;2023-07-29T04:46:55;5.93;;;5.03;;
23642;SDS011;11998;55.788;37.572;2023-07-29T04:47:56;7.67;;;5.03;;
23642;SDS011;11998;55.788;37.572;2023-07-29T04:48:58;8.10;;;4.90;;
23642;SDS011;11998;55.788;37.572;2023-07-29T04:49:58;7.10;;;4.80;;
23642;SDS011;11998;55.788;37.572;2023-07-29T04:50:59;7.87;;;5.13;;
23642;SDS011;11998;55.788;37.572;2023-07-29T04:51:59;7.03;;;4.83;;
23642;SDS011;11998;55.788;37.572;2023-07-29T04:53:00;7.67;;;5.33;;
23642;SDS011;11998;55.788;37.572;2023-07-29T04:54:00;7.13;;;5.00;;
23642;SDS011;11998;55.788;37.572;2023-07-29T04:55:01;7.30;;;5.30;;
23642;SDS011;11998;55.788;37.572;2023-07-29T04:56:02;6.67;;;5.30;;
23642;SDS011;11998;55.788;37.572;2023-07-29T04:57:03;5.77;;;5.07;;
23642;SDS011;11998;55.788;37.572;2023-07-29T04:58:03;6.20;;;4.97;;
23642;SDS011;11998;55.788;37.572;2023-07-29T04:59:04;5.97;;;4.73;;
23642;SDS011;11998;55.788;37.572;2023-07-29T05:00:04;6.97;;;4.67;;
23642;SDS011;11998;55.788;37.572;2023-07-29T05:01:05;8.10;;;4.93;;
23642;SDS011;11998;55.788;37.572;2023-07-29T05:02:06;7.43;;;5.43;;
23642;SDS011;11998;55.788;37.572;2023-07-29T05:03:07;5.67;;;5.03;;
23642;SDS011;11998;55.788;37.572;2023-07-29T05:04:08;8.70;;;5.17;;
23642;SDS011;11998;55.788;37.572;2023-07-29T05:05:08;8.50;;;5.37;;
23642;SDS011;11998;55.788;37.572;2023-07-29T05:06:09;6.87;;;5.07;;
23642;SDS011;11998;55.788;37.572;2023-07-29T05:07:09;7.80;;;5.60;;
23642;SDS011;11998;55.788;37.572;2023-07-29T05:08:10;5.87;;;5.30;;
23642;SDS011;11998;55.788;37.572;2023-07-29T05:09:14;7.73;;;5.10;;
23642;SDS011;11998;55.788;37.572;2023-07-29T05:10:18;6.20;;;5.37;;
23642;SDS011;11998;55.788;37.572;2023-07-29T05:11:19;8.00;;;5.30;;
23642;SDS011;11998;55.788;37.572;2023-07-29T05:12:19;5.77;;;5.00;;
23642;SDS011;11998;55.788;37.572;2023-07-29T05:13:21;7.87;;;5.47;;
23642;SDS011;11998;55.788;37.572;2023-07-29T05:14:22;7.50;;;5.20;;
23642;SDS011;11998;55.788;37.572;2023-07-29T05:15:23;8.50;;;5.43;;
23642;SDS011;11998;55.788;37.572;2023-07-29T05:16:23;6.63;;;5.27;;
23642;SDS011;11998;55.788;37.572;2023-07-29T05:17:24;5.87;;;4.83;;
23642;SDS011;11998;55.788;37.572;2023-07-29T05:18:24;6.13;;;5.05;;
23642;SDS011;11998;55.788;37.572;2023-07-29T05:19:25;6.47;;;5.00;;
23642;SDS011;11998;55.788;37.572;2023-07-29T05:20:25;9.13;;;5.17;;
23642;SDS011;11998;55.788;37.572;2023-07-29T05:21:26;12.07;;;5.20;;
23642;SDS011;11998;55.788;37.572;2023-07-29T05:22:26;7.53;;;5.23;;
23642;SDS011;11998;55.788;37.572;2023-07-29T05:23:27;8.47;;;5.90;;
23642;SDS011;11998;55.788;37.572;2023-07-29T05:24:27;8.10;;;5.50;;
23642;SDS011;11998;55.788;37.572;2023-07-29T05:25:28;11.23;;;5.37;;
23642;SDS011;11998;55.788;37.572;2023-07-29T05:26:29;13.33;;;6.00;;
23642;SDS011;11998;55.788;37.572;2023-07-29T05:27:29;9.60;;;5.78;;
23642;SDS011;11998;55.788;37.572;2023-07-29T05:28:30;8.97;;;5.33;;
23642;SDS011;11998;55.788;37.572;2023-07-29T05:29:30;8.37;;;5.20;;
23642;SDS011;11998;55.788;37.572;2023-07-29T05:30:32;8.17;;;5.40;;
23642;SDS011;11998;55.788;37.572;2023-07-29T05:31:34;9.13;;;5.20;;
23642;SDS011;11998;55.788;37.572;2023-07-29T05:32:34;5.17;;;4.67;;
23642;SDS011;11998;55.788;37.572;2023-07-29T05:33:35;5.77;;;4.57;;
23642;SDS011;11998;55.788;37.572;2023-07-29T05:34:36;6.10;;;5.00;;
23642;SDS011;11998;55.788;37.572;2023-07-29T05:35:37;5.43;;;4.50;;
23642;SDS011;11998;55.788;37.572;2023-07-29T05:36:38;5.17;;;4.67;;
23642;SDS011;11998;55.788;37.572;2023-07-29T05:37:39;5.23;;;4.73;;
23642;SDS011;11998;55.788;37.572;2023-07-29T05:38:40;4.97;;;4.47;;
23642;SDS011;11998;55.788;37.572;2023-07-29T05:39:40;4.97;;;4.23;;
23642;SDS011;11998;55.788;37.572;2023-07-29T05:40:41;5.53;;;4.53;;
23642;SDS011;11998;55.788;37.572;2023-07-29T05:41:41;4.73;;;4.30;;
23642;SDS011;11998;55.788;37.572;2023-07-29T05:42:42;4.63;;;4.23;;
23642;SDS011;11998;55.788;37.572;2023-07-29T05:43:43;5.82;;;4.60;;
23642;SDS011;11998;55.788;37.572;2023-07-29T05:44:45;6.33;;;5.17;;
23642;SDS011;11998;55.788;37.572;2023-07-29T05:45:45;5.27;;;4.40;;
23642;SDS011;11998;55.788;37.572;2023-07-29T05:46:46;6.40;;;4.57;;
23642;SDS011;11998;55.788;37.572;2023-07-29T05:47:47;5.23;;;4.00;;
23642;SDS011;11998;55.788;37.572;2023-07-29T05:48:48;4.77;;;4.27;;
23642;SDS011;11998;55.788;37.572;2023-07-29T05:49:48;5.43;;;4.20;;
23642;SDS011;11998;55.788;37.572;2023-07-29T05:50:49;5.03;;;4.00;;
23642;SDS011;11998;55.788;37.572;2023-07-29T05:51:50;4.30;;;3.90;;
23642;SDS011;11998;55.788;37.572;2023-07-29T05:52:52;5.13;;;3.90;;
23642;SDS011;11998;55.788;37.572;2023-07-29T05:53:53;4.53;;;3.90;;
23642;SDS011;11998;55.788;37.572;2023-07-29T05:54:54;4.50;;;4.10;;
23642;SDS011;11998;55.788;37.572;2023-07-29T05:55:54;4.55;;;3.90;;
23642;SDS011;11998;55.788;37.572;2023-07-29T05:56:55;4.22;;;3.67;;
23642;SDS011;11998;55.788;37.572;2023-07-29T05:57:55;4.53;;;4.00;;
23642;SDS011;11998;55.788;37.572;2023-07-29T05:58:57;5.23;;;4.00;;
23642;SDS011;11998;55.788;37.572;2023-07-29T05:59:58;5.75;;;3.60;;
23642;SDS011;11998;55.788;37.572;2023-07-29T06:00:58;4.20;;;3.63;;
23642;SDS011;11998;55.788;37.572;2023-07-29T06:01:59;4.07;;;3.67;;
23642;SDS011;11998;55.788;37.572;2023-07-29T06:02:59;5.20;;;4.00;;
23642;SDS011;11998;55.788;37.572;2023-07-29T06:04:00;4.68;;;3.63;;
23642;SDS011;11998;55.788;37.572;2023-07-29T06:05:00;4.57;;;4.18;;
23642;SDS011;11998;55.788;37.572;2023-07-29T06:06:03;4.17;;;3.50;;
23642;SDS011;11998;55.788;37.572;2023-07-29T06:07:03;4.27;;;3.60;;
23642;SDS011;11998;55.788;37.572;2023-07-29T06:08:04;3.53;;;3.30;;
23642;SDS011;11998;55.788;37.572;2023-07-29T06:09:05;4.10;;;3.47;;
23642;SDS011;11998;55.788;37.572;2023-07-29T06:10:06;4.40;;;3.60;;